createdAt,value
2022-09-20T00:02:18.094Z,98817.00
2022-09-20T00:04:46.335Z,98814.00
2022-09-20T00:07:14.551Z,98825.00
2022-09-20T00:09:42.893Z,98811.00
2022-09-20T00:12:11.000Z,98814.00
2022-09-20T00:14:39.329Z,98821.00
2022-09-20T00:17:09.089Z,98810.00
2022-09-20T00:19:37.391Z,98834.00
2022-09-20T00:22:05.797Z,98832.00
2022-09-20T00:24:36.690Z,98815.00
2022-09-20T00:27:05.037Z,98828.00
2022-09-20T00:29:33.161Z,98826.00
2022-09-20T00:32:01.411Z,98822.00
2022-09-20T00:34:48.174Z,98828.00
2022-09-20T00:37:16.316Z,98806.00
2022-09-20T00:39:44.468Z,98818.00
2022-09-20T00:42:14.039Z,98823.00
2022-09-20T00:44:48.934Z,98826.00
2022-09-20T00:47:23.623Z,98829.00
2022-09-20T00:49:54.687Z,98828.00
2022-09-20T00:52:22.940Z,98834.00
2022-09-20T00:54:51.062Z,98826.00
2022-09-20T00:57:19.214Z,98819.00
2022-09-20T00:59:48.083Z,98826.00
2022-09-20T01:02:17.627Z,98829.00
2022-09-20T01:04:45.874Z,98829.00
2022-09-20T01:07:16.658Z,98826.00
2022-09-20T01:09:45.264Z,98814.00
2022-09-20T01:12:15.953Z,98830.00
2022-09-20T01:14:44.097Z,98831.00
2022-09-20T01:17:12.251Z,98830.00
2022-09-20T01:19:43.671Z,98831.00
2022-09-20T01:22:16.165Z,98840.00
2022-09-20T01:24:47.478Z,98829.00
2022-09-20T01:27:18.353Z,98845.00
2022-09-20T01:29:58.553Z,98829.00
2022-09-20T01:32:27.916Z,98839.00
2022-09-20T01:34:56.476Z,98835.00
2022-09-20T01:37:26.296Z,98834.00
2022-09-20T01:40:00.285Z,98847.00
2022-09-20T01:42:33.532Z,98830.00
2022-09-20T01:45:06.858Z,98830.00
2022-09-20T01:47:39.519Z,98831.00
2022-09-20T01:50:13.659Z,98832.00
2022-09-20T01:53:14.376Z,98839.00
2022-09-20T01:56:34.778Z,98841.00
2022-09-20T01:59:34.413Z,98843.00
2022-09-20T02:02:11.403Z,98842.00
2022-09-20T02:05:04.244Z,98845.00
2022-09-20T02:08:05.326Z,98849.00
2022-09-20T02:10:43.059Z,98846.00
2022-09-20T02:13:12.318Z,98845.00
2022-09-20T02:16:12.565Z,98857.00
2022-09-20T02:18:51.219Z,98848.00
2022-09-20T02:21:23.082Z,98852.00
2022-09-20T02:23:56.013Z,98852.00
2022-09-20T02:26:34.512Z,98845.00
2022-09-20T02:29:04.318Z,98844.00
2022-09-20T02:31:44.297Z,98849.00
2022-09-20T02:34:48.011Z,98848.00
2022-09-20T02:37:25.712Z,98845.00
2022-09-20T02:39:58.674Z,98839.00
2022-09-20T02:42:27.946Z,98834.00
2022-09-20T02:45:00.083Z,98841.00
2022-09-20T02:47:33.725Z,98837.00
2022-09-20T02:50:14.640Z,98836.00
2022-09-20T02:52:48.309Z,98843.00
2022-09-20T02:55:18.646Z,98841.00
2022-09-20T02:57:51.902Z,98842.00
2022-09-20T03:00:21.816Z,98846.00
2022-09-20T03:03:01.099Z,98838.00
2022-09-20T03:05:31.858Z,98837.00
2022-09-20T03:08:17.058Z,98843.00
2022-09-20T03:10:48.927Z,98842.00
2022-09-20T03:13:21.058Z,98848.00
2022-09-20T03:15:58.661Z,98852.00
2022-09-20T03:18:34.666Z,98845.00
2022-09-20T03:21:11.032Z,98848.00
2022-09-20T03:23:48.334Z,98856.00
2022-09-20T03:26:21.748Z,98851.00
2022-09-20T03:29:02.249Z,98860.00
2022-09-20T03:31:42.161Z,98859.00
2022-09-20T03:34:17.282Z,98863.00
2022-09-20T03:37:02.948Z,98858.00
2022-09-20T03:39:52.794Z,98859.00
2022-09-20T03:42:21.253Z,98865.00
2022-09-20T03:45:06.531Z,98865.00
2022-09-20T03:47:44.042Z,98855.00
2022-09-20T03:50:31.974Z,98865.00
2022-09-20T03:53:15.036Z,98868.00
2022-09-20T03:56:18.850Z,98871.00
2022-09-20T03:58:56.295Z,98859.00
2022-09-20T04:01:39.963Z,98867.00
2022-09-20T04:04:12.179Z,98870.00
2022-09-20T04:06:50.576Z,98868.00
2022-09-20T04:09:41.980Z,98875.00
2022-09-20T04:12:13.931Z,98883.00
2022-09-20T04:14:44.453Z,98868.00
2022-09-20T04:17:25.751Z,98877.00
2022-09-20T04:19:56.450Z,98877.00
2022-09-20T04:22:24.916Z,98872.00
2022-09-20T04:24:58.150Z,98877.00
2022-09-20T04:27:29.448Z,98854.00
2022-09-20T04:29:59.694Z,98875.00
2022-09-20T04:32:32.080Z,98872.00
2022-09-20T04:35:22.024Z,98874.00
2022-09-20T04:37:50.203Z,98873.00
2022-09-20T04:40:24.905Z,98872.00
2022-09-20T04:43:31.987Z,98872.00
2022-09-20T04:46:37.049Z,98879.00
2022-09-20T04:49:44.191Z,98881.00
2022-09-20T04:52:27.372Z,98872.00
2022-09-20T04:55:19.422Z,98885.00
2022-09-20T04:58:13.853Z,98877.00
2022-09-20T05:00:51.049Z,98892.00
2022-09-20T05:03:29.645Z,98883.00
2022-09-20T05:06:30.077Z,98889.00
2022-09-20T05:09:24.469Z,98894.00
2022-09-20T05:12:04.142Z,98893.00
2022-09-20T05:14:48.882Z,98896.00
2022-09-20T05:17:26.589Z,98897.00
2022-09-20T05:20:15.287Z,98895.00
2022-09-20T05:23:10.684Z,98895.00
2022-09-20T05:25:52.724Z,98900.00
2022-09-20T05:28:23.320Z,98901.00
2022-09-20T05:30:54.778Z,98906.00
2022-09-20T05:33:24.193Z,98909.00
2022-09-20T05:35:58.187Z,98913.00
2022-09-20T05:41:08.715Z,98920.00
2022-09-20T05:43:38.427Z,98907.00
2022-09-20T05:46:15.912Z,98920.00
2022-09-20T05:48:53.496Z,98919.00
2022-09-20T05:51:39.961Z,98929.00
2022-09-20T05:54:25.276Z,98923.00
2022-09-20T05:56:56.682Z,98923.00
2022-09-20T05:59:33.095Z,98926.00
2022-09-20T06:02:16.628Z,98925.00
2022-09-20T06:04:46.845Z,98931.00
2022-09-20T06:07:20.619Z,98928.00
2022-09-20T06:10:01.363Z,98929.00
2022-09-20T06:12:41.788Z,98917.00
2022-09-20T06:15:17.412Z,98945.00
2022-09-20T06:17:50.769Z,98935.00
2022-09-20T06:20:22.298Z,98936.00
2022-09-20T06:22:51.606Z,98924.00
2022-09-20T06:25:21.503Z,98931.00
2022-09-20T06:27:53.239Z,98930.00
2022-09-20T06:30:24.279Z,98924.00
2022-09-20T06:32:58.289Z,98930.00
2022-09-20T06:35:34.318Z,98939.00
2022-09-20T06:38:26.552Z,98936.00
2022-09-20T06:41:14.827Z,98933.00
2022-09-20T06:43:43.230Z,98939.00
2022-09-20T06:46:14.057Z,98947.00
2022-09-20T06:48:43.662Z,98942.00
2022-09-20T06:51:12.522Z,98942.00
2022-09-20T06:53:41.455Z,98942.00
2022-09-20T06:56:10.645Z,98946.00
2022-09-20T06:58:38.851Z,98947.00
2022-09-20T07:01:07.250Z,98952.00
2022-09-20T07:03:35.441Z,98944.00
2022-09-20T07:06:05.322Z,98949.00
2022-09-20T07:08:33.464Z,98951.00
2022-09-20T07:11:05.236Z,98948.00
2022-09-20T07:13:33.452Z,98948.00
2022-09-20T07:16:03.388Z,98961.00
2022-09-20T07:18:33.585Z,98952.00
2022-09-20T07:21:01.747Z,98957.00
2022-09-20T07:23:31.360Z,98956.00
2022-09-20T07:26:01.204Z,98957.00
2022-09-20T07:28:29.407Z,98952.00
2022-09-20T07:30:57.590Z,98955.00
2022-09-20T07:33:25.758Z,98960.00
2022-09-20T07:35:54.574Z,98974.00
2022-09-20T07:38:22.894Z,98965.00
2022-09-20T07:40:59.952Z,98969.00
2022-09-20T07:43:28.242Z,98974.00
2022-09-20T07:45:58.120Z,98981.00
2022-09-20T07:48:27.105Z,98975.00
2022-09-20T07:50:56.471Z,98982.00
2022-09-20T07:53:24.780Z,98975.00
2022-09-20T07:56:04.429Z,98995.00
2022-09-20T07:58:34.077Z,98998.00
2022-09-20T08:01:08.298Z,98989.00
2022-09-20T08:03:36.611Z,98998.00
2022-09-20T08:06:06.090Z,99004.00
2022-09-20T08:08:34.431Z,98996.00
2022-09-20T08:11:08.367Z,99007.00
2022-09-20T08:16:27.701Z,99006.00
2022-09-20T08:18:57.239Z,99006.00
2022-09-20T08:21:25.634Z,99006.00
2022-09-20T08:23:53.931Z,99015.00
2022-09-20T08:26:24.686Z,99019.00
2022-09-20T08:28:53.640Z,99019.00
2022-09-20T08:31:22.625Z,99021.00
2022-09-20T08:33:51.427Z,99030.00
2022-09-20T08:36:20.632Z,99014.00
2022-09-20T08:41:43.728Z,99021.00
2022-09-20T08:44:14.310Z,99019.00
2022-09-20T08:46:43.806Z,99018.00
2022-09-20T08:49:12.349Z,99014.00
2022-09-20T08:51:41.101Z,99016.00
2022-09-20T08:54:16.265Z,99008.00
2022-09-20T08:56:46.630Z,99016.00
2022-09-20T08:59:16.186Z,99016.00
2022-09-20T09:01:44.356Z,99017.00
2022-09-20T09:04:14.520Z,99006.00
2022-09-20T09:06:42.911Z,99011.00
2022-09-20T09:09:15.783Z,99012.00
2022-09-20T09:11:46.269Z,99009.00
2022-09-20T09:14:31.471Z,99012.00
2022-09-20T09:17:00.884Z,99017.00
2022-09-20T09:19:36.807Z,99014.00
2022-09-20T09:22:06.071Z,99011.00
2022-09-20T09:24:34.208Z,99009.00
2022-09-20T09:27:21.943Z,99013.00
2022-09-20T09:29:51.672Z,99010.00
2022-09-20T09:32:24.301Z,99009.00
2022-09-20T09:34:52.449Z,99013.00
2022-09-20T09:37:28.679Z,99012.00
2022-09-20T09:40:18.866Z,99011.00
2022-09-20T09:42:52.382Z,99018.00
2022-09-20T09:45:32.071Z,99019.00
2022-09-20T09:48:01.607Z,99015.00
2022-09-20T09:50:31.585Z,99017.00
2022-09-20T09:53:04.833Z,99017.00
2022-09-20T09:55:59.778Z,99016.00
2022-09-20T09:58:36.695Z,99009.00
2022-09-20T10:01:05.527Z,99024.00
2022-09-20T10:03:38.816Z,99011.00
2022-09-20T10:06:18.314Z,99020.00
2022-09-20T10:08:56.363Z,99021.00
2022-09-20T10:11:30.511Z,99008.00
2022-09-20T10:14:05.722Z,99016.00
2022-09-20T10:16:39.845Z,99020.00
2022-09-20T10:19:11.097Z,99023.00
2022-09-20T10:21:45.206Z,99013.00
2022-09-20T10:24:19.215Z,99012.00
2022-09-20T10:26:58.357Z,99015.00
2022-09-20T10:29:34.885Z,99016.00
2022-09-20T10:32:09.928Z,99024.00
2022-09-20T10:35:00.176Z,99018.00
2022-09-20T10:37:32.273Z,99025.00
2022-09-20T10:40:04.280Z,99017.00
2022-09-20T10:42:53.831Z,99013.00
2022-09-20T10:45:55.905Z,99022.00
2022-09-20T10:48:19.255Z,99013.00
2022-09-20T10:50:50.970Z,99019.00
2022-09-20T10:53:27.884Z,99030.00
2022-09-20T10:56:02.985Z,99022.00
2022-09-20T10:58:59.299Z,99021.00
2022-09-20T11:01:31.504Z,99018.00
2022-09-20T11:04:09.144Z,99021.00
2022-09-20T11:06:44.637Z,99009.00
2022-09-20T11:09:15.160Z,99009.00
2022-09-20T11:11:44.267Z,99018.00
2022-09-20T11:14:13.718Z,99015.00
2022-09-20T11:16:45.992Z,99013.00
2022-09-20T11:19:18.536Z,99014.00
2022-09-20T11:21:49.543Z,99006.00
2022-09-20T11:24:24.037Z,99014.00
2022-09-20T11:26:53.269Z,99006.00
2022-09-20T11:29:23.991Z,99007.00
2022-09-20T11:31:54.813Z,99008.00
2022-09-20T11:34:25.850Z,99007.00
2022-09-20T11:36:57.636Z,99003.00
2022-09-20T11:39:29.251Z,99002.00
2022-09-20T11:41:59.982Z,99006.00
2022-09-20T11:44:28.330Z,99008.00
2022-09-20T11:47:00.767Z,99002.00
2022-09-20T11:49:30.354Z,99005.00
2022-09-20T11:52:28.784Z,98995.00
2022-09-20T11:55:32.235Z,98995.00
2022-09-20T11:58:02.371Z,99003.00
2022-09-20T12:00:31.422Z,99002.00
2022-09-20T12:03:00.995Z,99000.00
2022-09-20T12:05:32.301Z,98994.00
2022-09-20T12:08:01.814Z,99000.00
2022-09-20T12:10:34.203Z,98994.00
2022-09-20T12:13:02.857Z,98984.00
2022-09-20T12:15:31.940Z,98991.00
2022-09-20T12:18:09.668Z,98988.00
2022-09-20T12:21:02.721Z,98992.00
2022-09-20T12:24:09.061Z,98998.00
2022-09-20T12:26:45.333Z,98988.00
2022-09-20T12:29:55.895Z,98990.00
2022-09-20T12:32:54.243Z,98991.00
2022-09-20T12:35:56.411Z,98986.00
2022-09-20T12:38:41.128Z,98991.00
2022-09-20T12:41:16.966Z,98992.00
2022-09-20T12:43:55.757Z,98989.00
2022-09-20T12:46:29.412Z,98984.00
2022-09-20T12:49:48.073Z,98992.00
2022-09-20T12:52:57.664Z,98987.00
2022-09-20T12:55:40.176Z,98984.00
2022-09-20T12:58:24.407Z,98996.00
2022-09-20T13:01:27.650Z,98993.00
2022-09-20T13:03:57.538Z,98981.00
2022-09-20T13:06:27.460Z,98982.00
2022-09-20T13:09:01.382Z,98980.00
2022-09-20T13:11:32.024Z,98979.00
2022-09-20T13:14:03.090Z,98979.00
2022-09-20T13:16:39.276Z,98985.00
2022-09-20T13:21:59.351Z,98996.00
2022-09-20T13:24:28.383Z,98921.00
2022-09-20T13:27:01.917Z,98942.00
2022-09-20T13:29:33.086Z,98976.00
2022-09-20T13:32:16.650Z,98968.00
2022-09-20T13:34:45.727Z,98925.00
2022-09-20T13:37:23.626Z,98973.00
2022-09-20T13:39:55.636Z,99014.00
2022-09-20T13:42:25.256Z,98922.00
2022-09-20T13:44:53.459Z,98919.00
2022-09-20T13:47:26.170Z,99000.00
2022-09-20T13:49:54.528Z,98903.00
2022-09-20T13:52:26.388Z,99029.00
2022-09-20T13:54:55.573Z,98965.00
2022-09-20T13:57:27.405Z,98905.00
2022-09-20T13:59:55.725Z,98998.00
2022-09-20T14:02:25.530Z,98936.00
2022-09-20T14:04:55.752Z,98955.00
2022-09-20T14:07:25.938Z,98984.00
2022-09-20T14:09:54.178Z,98905.00
2022-09-20T14:12:22.453Z,98889.00
2022-09-20T14:14:52.086Z,98952.00
2022-09-20T14:17:21.540Z,98951.00
2022-09-20T14:19:50.615Z,98930.00
2022-09-20T14:22:20.203Z,98968.00
2022-09-20T14:24:59.551Z,98985.00
2022-09-20T14:27:27.850Z,98905.00
2022-09-20T14:29:57.431Z,98900.00
2022-09-20T14:32:48.132Z,98928.00
2022-09-20T14:35:18.094Z,98936.00
2022-09-20T14:37:47.404Z,98914.00
2022-09-20T14:40:22.085Z,99005.00
2022-09-20T14:42:51.797Z,99010.00
2022-09-20T14:45:25.243Z,98994.00
2022-09-20T14:47:56.243Z,98958.00
2022-09-20T14:50:28.767Z,99021.00
2022-09-20T14:53:05.671Z,98946.00
2022-09-20T14:55:37.428Z,98980.00
2022-09-20T14:58:08.386Z,98936.00
2022-09-20T15:00:50.028Z,98886.00
2022-09-20T15:03:20.796Z,98984.00
2022-09-20T15:05:48.966Z,98958.00
2022-09-20T15:08:17.844Z,98960.00
2022-09-20T15:10:45.953Z,99002.00
2022-09-20T15:13:15.114Z,99007.00
2022-09-20T15:15:44.405Z,98969.00
2022-09-20T15:18:20.652Z,98945.00
2022-09-20T15:20:49.203Z,98964.00
2022-09-20T15:23:17.296Z,98956.00
2022-09-20T15:25:45.363Z,98991.00
2022-09-20T15:28:16.765Z,98986.00
2022-09-20T15:30:44.950Z,98963.00
2022-09-20T15:33:13.117Z,99017.00
2022-09-20T15:35:43.084Z,98966.00
2022-09-20T15:38:11.927Z,99074.00
2022-09-20T15:40:40.992Z,99042.00
2022-09-20T15:43:09.860Z,99008.00
2022-09-20T15:45:38.295Z,99102.00
2022-09-20T15:48:06.866Z,98986.00
2022-09-20T15:50:39.558Z,99080.00
2022-09-20T15:53:12.426Z,99042.00
2022-09-20T15:55:40.632Z,98988.00
2022-09-20T16:01:51.326Z,99005.00
2022-09-20T16:04:20.158Z,99060.00
2022-09-20T16:06:50.820Z,99024.00
2022-09-20T16:09:20.436Z,99062.00
2022-09-20T16:11:50.622Z,98970.00
2022-09-20T16:14:20.430Z,98967.00
2022-09-20T16:16:48.612Z,99085.00
2022-09-20T16:23:16.256Z,99082.00
2022-09-20T16:25:50.698Z,99053.00
2022-09-20T16:28:21.238Z,99080.00
2022-09-20T16:31:00.313Z,99015.00
2022-09-20T16:33:47.328Z,99087.00
2022-09-20T16:36:43.608Z,99039.00
2022-09-20T16:39:11.905Z,99027.00
2022-09-20T16:41:43.905Z,99081.00
2022-09-20T16:44:15.897Z,99022.00
2022-09-20T16:46:51.795Z,99121.00
2022-09-20T16:49:25.388Z,99030.00
2022-09-20T16:51:54.271Z,99081.00
2022-09-20T16:54:23.435Z,99056.00
2022-09-20T16:56:55.062Z,99005.00
2022-09-20T16:59:23.274Z,99049.00
2022-09-20T17:01:52.539Z,99095.00
2022-09-20T17:04:22.425Z,99039.00
2022-09-20T17:06:52.807Z,99050.00
2022-09-20T17:09:21.140Z,99032.00
2022-09-20T17:11:51.500Z,99119.00
2022-09-20T17:14:22.017Z,99072.00
2022-09-20T17:17:44.171Z,99048.00
2022-09-20T17:20:15.013Z,99110.00
2022-09-20T17:22:43.785Z,99074.00
2022-09-20T17:25:35.005Z,99054.00
2022-09-20T17:28:03.036Z,99050.00
2022-09-20T17:30:46.068Z,99078.00
2022-09-20T17:33:15.595Z,99043.00
2022-09-20T17:35:52.186Z,99050.00
2022-09-20T17:38:31.986Z,99062.00
2022-09-20T17:41:08.648Z,99106.00
2022-09-20T17:43:37.863Z,99112.00
2022-09-20T17:49:45.632Z,99159.00
2022-09-20T17:58:40.753Z,99066.00
2022-09-20T18:04:50.010Z,99137.00
2022-09-20T18:07:53.453Z,99089.00
2022-09-20T18:10:38.133Z,99175.00
2022-09-20T18:13:30.865Z,99158.00
2022-09-20T18:19:32.810Z,99116.00
2022-09-20T18:23:04.469Z,99169.00
2022-09-20T18:25:26.795Z,99140.00
2022-09-20T18:27:56.767Z,99124.00
2022-09-20T18:33:26.550Z,99187.00
2022-09-20T18:36:02.964Z,99197.00
2022-09-20T18:38:35.500Z,99184.00
2022-09-20T18:41:03.743Z,99116.00
2022-09-20T18:45:59.698Z,99170.00
2022-09-20T18:48:34.162Z,99186.00
2022-09-20T18:51:05.783Z,99186.00
2022-09-20T18:53:35.792Z,99192.00
2022-09-20T18:56:09.859Z,99194.00
2022-09-20T18:58:40.241Z,99199.00
2022-09-20T19:01:38.360Z,99188.00
2022-09-20T19:04:12.606Z,99195.00
2022-09-20T19:06:46.231Z,99194.00
2022-09-20T19:09:17.064Z,99200.00
2022-09-20T19:11:49.142Z,99194.00
2022-09-20T19:14:20.355Z,99201.00
2022-09-20T19:16:49.307Z,99205.00
2022-09-20T19:19:29.798Z,99200.00
2022-09-20T19:22:00.947Z,99206.00
2022-09-20T19:24:39.787Z,99213.00
2022-09-20T19:27:10.639Z,99216.00
2022-09-20T19:29:40.127Z,99230.00
2022-09-20T19:32:13.090Z,99223.00
2022-09-20T19:34:42.114Z,99229.00
2022-09-20T19:37:19.304Z,99237.00
2022-09-20T19:39:59.953Z,99236.00
2022-09-20T19:42:36.852Z,99245.00
2022-09-20T19:45:10.529Z,99241.00
2022-09-20T19:47:47.649Z,99244.00
2022-09-20T19:50:17.892Z,99240.00
2022-09-20T19:52:48.946Z,99244.00
2022-09-20T19:55:19.131Z,99245.00
2022-09-20T19:57:49.170Z,99245.00
2022-09-20T20:00:20.372Z,99240.00
2022-09-20T20:02:50.001Z,99252.00
2022-09-20T20:05:25.112Z,99255.00
2022-09-20T20:08:12.740Z,99246.00
2022-09-20T20:10:47.817Z,99245.00
2022-09-20T20:13:31.187Z,99247.00
2022-09-20T20:16:02.165Z,99247.00
2022-09-20T20:18:34.552Z,99252.00
2022-09-20T20:21:06.861Z,99267.00
2022-09-20T20:23:55.548Z,99268.00
2022-09-20T20:26:24.618Z,99271.00
2022-09-20T20:28:53.157Z,99261.00
2022-09-20T20:31:21.519Z,99271.00
2022-09-20T20:33:49.843Z,99269.00
2022-09-20T20:36:18.176Z,99276.00
2022-09-20T20:38:49.936Z,99268.00
2022-09-20T20:41:20.490Z,99278.00
2022-09-20T20:43:48.951Z,99271.00
2022-09-20T20:46:18.706Z,99278.00
2022-09-20T20:48:47.924Z,99277.00
2022-09-20T20:51:17.450Z,99288.00
2022-09-20T20:53:47.111Z,99289.00
2022-09-20T20:56:17.738Z,99289.00
2022-09-20T20:58:47.758Z,99286.00
2022-09-20T21:01:16.866Z,99294.00
2022-09-20T21:03:47.288Z,99305.00
2022-09-20T21:06:15.673Z,99294.00
2022-09-20T21:08:49.050Z,99299.00
2022-09-20T21:11:19.527Z,99291.00
2022-09-20T21:13:49.573Z,99291.00
2022-09-20T21:16:19.016Z,99300.00
2022-09-20T21:18:48.241Z,99305.00
2022-09-20T21:21:18.032Z,99297.00
2022-09-20T21:23:47.236Z,99297.00
2022-09-20T21:26:16.205Z,99296.00
2022-09-20T21:28:46.092Z,99304.00
2022-09-20T21:31:15.990Z,99315.00
2022-09-20T21:33:45.100Z,99317.00
2022-09-20T21:36:14.356Z,99310.00
2022-09-20T21:38:42.961Z,99320.00
2022-09-20T21:41:12.590Z,99316.00
2022-09-20T21:43:42.791Z,99314.00
2022-09-20T21:46:12.308Z,99312.00
2022-09-20T21:48:42.046Z,99314.00
2022-09-20T21:51:11.539Z,99307.00
2022-09-20T21:53:40.232Z,99321.00
2022-09-20T21:56:09.209Z,99326.00
2022-09-20T21:58:38.906Z,99323.00
2022-09-20T22:01:09.398Z,99317.00
2022-09-20T22:03:38.151Z,99329.00
2022-09-20T22:06:09.750Z,99326.00
2022-09-20T22:08:38.272Z,99323.00
2022-09-20T22:11:10.239Z,99319.00
2022-09-20T22:13:42.386Z,99331.00
2022-09-20T22:16:11.541Z,99330.00
2022-09-20T22:18:40.782Z,99328.00
2022-09-20T22:21:11.611Z,99327.00
2022-09-20T22:23:39.841Z,99324.00
2022-09-20T22:26:09.616Z,99326.00
2022-09-20T22:28:37.999Z,99329.00
2022-09-20T22:31:07.810Z,99326.00
2022-09-20T22:33:36.495Z,99321.00
2022-09-20T22:36:04.947Z,99305.00
2022-09-20T22:38:34.533Z,99328.00
2022-09-20T22:41:06.221Z,99321.00
2022-09-20T22:43:34.858Z,99325.00
2022-09-20T22:46:04.575Z,99321.00
2022-09-20T22:48:32.861Z,99326.00
2022-09-20T22:51:01.815Z,99327.00
2022-09-20T22:53:30.613Z,99334.00
2022-09-20T22:56:08.003Z,99330.00
2022-09-20T22:58:37.449Z,99336.00
2022-09-20T23:01:07.269Z,99332.00
2022-09-20T23:03:39.798Z,99329.00
2022-09-20T23:06:13.632Z,99342.00
2022-09-20T23:08:41.783Z,99332.00
2022-09-20T23:11:11.481Z,99340.00
2022-09-20T23:13:39.709Z,99338.00
2022-09-20T23:16:14.548Z,99338.00
2022-09-20T23:18:42.925Z,99333.00
2022-09-20T23:21:11.081Z,99342.00
2022-09-20T23:23:40.032Z,99345.00
2022-09-20T23:26:09.171Z,99339.00
2022-09-20T23:28:39.395Z,99346.00
2022-09-20T23:31:08.304Z,99337.00
2022-09-20T23:33:36.530Z,99345.00
2022-09-20T23:36:07.723Z,99346.00
2022-09-20T23:38:35.875Z,99345.00
2022-09-20T23:41:04.505Z,99349.00
2022-09-20T23:43:32.942Z,99339.00
2022-09-20T23:46:02.646Z,99342.00
2022-09-20T23:48:30.924Z,99343.00
2022-09-20T23:50:59.136Z,99334.00
2022-09-20T23:53:27.454Z,99348.00
2022-09-20T23:55:55.643Z,99346.00
2022-09-20T23:58:23.959Z,99344.00
